createdAt,value
2023-02-19T00:00:56.135Z,96.3
2023-02-19T00:03:56.148Z,96.4
2023-02-19T00:06:56.156Z,96.4
2023-02-19T00:09:56.155Z,96.5
2023-02-19T00:12:56.159Z,96.5
2023-02-19T00:15:56.206Z,96.6
2023-02-19T00:18:56.171Z,96.6
2023-02-19T00:21:56.175Z,96.6
2023-02-19T00:24:56.183Z,96.6
2023-02-19T00:27:56.188Z,96.6
2023-02-19T00:30:56.312Z,96.6
2023-02-19T00:33:56.221Z,96.6
2023-02-19T00:36:56.201Z,96.7
2023-02-19T00:39:56.202Z,96.7
2023-02-19T00:42:56.222Z,96.7
2023-02-19T00:45:56.255Z,96.7
2023-02-19T00:48:56.222Z,96.7
2023-02-19T00:51:56.261Z,96.7
2023-02-19T00:54:56.227Z,96.8
2023-02-19T00:57:56.241Z,96.7
2023-02-19T01:00:56.242Z,96.8
2023-02-19T01:03:56.246Z,96.8
2023-02-19T01:06:56.251Z,96.8
2023-02-19T01:09:56.278Z,96.8
2023-02-19T01:12:56.257Z,96.8
2023-02-19T01:15:56.266Z,96.8
2023-02-19T01:18:56.275Z,96.8
2023-02-19T01:21:56.273Z,96.8
2023-02-19T01:24:56.285Z,96.8
2023-02-19T01:27:56.309Z,96.8
2023-02-19T01:30:56.314Z,96.8
2023-02-19T01:33:56.300Z,96.8
2023-02-19T01:36:56.304Z,96.8
2023-02-19T01:39:56.302Z,96.8
2023-02-19T01:42:56.303Z,96.9
2023-02-19T01:45:56.329Z,96.9
2023-02-19T01:48:56.320Z,96.9
2023-02-19T01:51:56.320Z,96.9
2023-02-19T01:54:56.319Z,96.9
2023-02-19T01:57:56.323Z,96.9
2023-02-19T02:00:56.363Z,96.9
2023-02-19T02:03:56.379Z,96.9
2023-02-19T02:06:56.364Z,96.9
2023-02-19T02:09:56.348Z,96.9
2023-02-19T02:12:56.357Z,96.9
2023-02-19T02:15:56.378Z,97
2023-02-19T02:18:56.366Z,96.9
2023-02-19T02:21:56.528Z,97
2023-02-19T02:24:56.372Z,96.9
2023-02-19T02:27:56.403Z,96.9
2023-02-19T02:30:56.467Z,97
2023-02-19T02:33:56.381Z,97
2023-02-19T02:36:56.399Z,97
2023-02-19T02:39:56.394Z,97
2023-02-19T02:42:56.400Z,97
2023-02-19T02:45:56.424Z,97.1
2023-02-19T02:48:56.405Z,97.2
2023-02-19T02:51:56.412Z,97
2023-02-19T02:54:56.422Z,96.3
2023-02-19T02:57:56.421Z,96.6
2023-02-19T03:00:56.474Z,96.7
2023-02-19T03:03:56.432Z,96.5
2023-02-19T03:06:56.437Z,96.5
2023-02-19T03:09:56.440Z,96.4
2023-02-19T03:12:56.439Z,96.4
2023-02-19T03:15:56.450Z,96.4
2023-02-19T03:18:56.450Z,96.4
2023-02-19T03:21:56.451Z,96.4
2023-02-19T03:24:56.458Z,96.4
2023-02-19T03:27:56.457Z,96.4
2023-02-19T03:30:56.534Z,96
2023-02-19T03:33:56.469Z,95.6
2023-02-19T03:36:56.478Z,95.9
2023-02-19T03:39:56.478Z,95.9
2023-02-19T03:42:56.482Z,96
2023-02-19T03:45:56.496Z,96
2023-02-19T03:48:56.489Z,96
2023-02-19T03:51:56.494Z,96
2023-02-19T03:54:56.502Z,96.1
2023-02-19T03:57:56.513Z,96.1
2023-02-19T04:00:56.509Z,96.1
2023-02-19T04:03:56.521Z,96.1
2023-02-19T04:06:56.518Z,96.2
2023-02-19T04:09:56.522Z,96
2023-02-19T04:12:56.525Z,96.1
2023-02-19T04:15:56.536Z,96.1
2023-02-19T04:18:56.532Z,96
2023-02-19T04:21:56.539Z,96.1
2023-02-19T04:24:56.542Z,96.1
2023-02-19T04:27:56.546Z,96.1
2023-02-19T04:30:56.592Z,96
2023-02-19T04:33:56.547Z,96
2023-02-19T04:36:56.555Z,95.9
2023-02-19T04:39:56.601Z,95.8
2023-02-19T04:42:56.580Z,95.6
2023-02-19T04:45:56.585Z,95
2023-02-19T04:48:56.570Z,94.4
2023-02-19T04:51:56.576Z,94.7
2023-02-19T04:54:56.577Z,94.8
2023-02-19T04:57:56.587Z,94.8
2023-02-19T05:00:56.603Z,94.9
2023-02-19T05:03:56.592Z,95
2023-02-19T05:06:56.596Z,94.9
2023-02-19T05:09:56.611Z,94.9
2023-02-19T05:12:57.998Z,95
2023-02-19T05:15:56.628Z,95
2023-02-19T05:18:56.613Z,95.2
2023-02-19T05:21:56.612Z,95.2
2023-02-19T05:24:56.625Z,95.3
2023-02-19T05:27:56.627Z,95.3
2023-02-19T05:30:56.666Z,95.6
2023-02-19T05:33:56.642Z,95.6
2023-02-19T05:36:56.631Z,95.6
2023-02-19T05:39:56.646Z,95.6
2023-02-19T05:42:56.646Z,95.6
2023-02-19T05:45:56.653Z,95.7
2023-02-19T05:48:56.663Z,95.7
2023-02-19T05:51:56.660Z,95.7
2023-02-19T05:54:56.672Z,95.7
2023-02-19T05:57:56.662Z,95.7
2023-02-19T06:00:56.678Z,95.7
2023-02-19T06:03:57.544Z,95.8
2023-02-19T06:06:56.684Z,95.8
2023-02-19T06:09:56.686Z,95.8
2023-02-19T06:12:56.690Z,95.9
2023-02-19T06:15:56.702Z,96
2023-02-19T06:18:56.708Z,96
2023-02-19T06:21:56.701Z,96
2023-02-19T06:24:56.706Z,96
2023-02-19T06:27:56.698Z,96.1
2023-02-19T06:30:56.712Z,96.2
2023-02-19T06:33:56.756Z,96.2
2023-02-19T06:36:57.888Z,96
2023-02-19T06:39:56.720Z,95.9
2023-02-19T06:42:56.732Z,95.9
2023-02-19T06:45:56.731Z,95.9
2023-02-19T06:48:56.743Z,96
2023-02-19T06:51:56.737Z,96
2023-02-19T06:54:56.742Z,96
2023-02-19T06:57:56.742Z,96
2023-02-19T07:00:56.826Z,96.1
2023-02-19T07:03:56.814Z,96
2023-02-19T07:06:56.744Z,96.1
2023-02-19T07:09:56.745Z,96.1
2023-02-19T07:12:56.751Z,96
2023-02-19T07:15:56.752Z,96
2023-02-19T07:18:56.759Z,96
2023-02-19T07:21:56.756Z,95.9
2023-02-19T07:24:56.761Z,96
2023-02-19T07:27:56.757Z,96
2023-02-19T07:30:56.782Z,96
2023-02-19T07:33:56.773Z,96
2023-02-19T07:36:56.757Z,95.9
2023-02-19T07:39:56.764Z,95.6
2023-02-19T07:42:56.764Z,95.4
2023-02-19T07:45:56.840Z,95.5
2023-02-19T07:48:56.769Z,95.5
2023-02-19T07:51:56.776Z,95.1
2023-02-19T07:54:56.782Z,95
2023-02-19T07:57:56.784Z,94.9
2023-02-19T08:00:56.839Z,94.8
2023-02-19T08:03:56.817Z,94.5
2023-02-19T08:06:56.832Z,94.5
2023-02-19T08:09:56.842Z,94
2023-02-19T08:12:56.849Z,93.9
2023-02-19T08:16:04.631Z,94
2023-02-19T08:18:56.865Z,94
2023-02-19T08:21:56.873Z,93.7
2023-02-19T08:24:56.878Z,93.6
2023-02-19T08:27:56.888Z,93.6
2023-02-19T08:30:56.958Z,92.9
2023-02-19T08:33:56.902Z,92
2023-02-19T08:36:57.119Z,91.4
2023-02-19T08:39:56.919Z,91.3
2023-02-19T08:42:56.926Z,91.7
2023-02-19T08:45:56.949Z,91.2
2023-02-19T08:48:56.929Z,90.6
2023-02-19T08:51:56.932Z,90.6
2023-02-19T08:54:56.926Z,89.9
2023-02-19T08:57:56.934Z,90
2023-02-19T09:00:56.959Z,89.7
2023-02-19T09:03:56.971Z,90.3
2023-02-19T09:06:56.942Z,89.5
2023-02-19T09:09:56.948Z,88.9
2023-02-19T09:12:56.951Z,88.4
2023-02-19T09:15:57.154Z,87.5
2023-02-19T09:18:56.977Z,87.4
2023-02-19T09:21:56.970Z,86.8
2023-02-19T09:24:56.968Z,87.3
2023-02-19T09:27:56.977Z,86.5
2023-02-19T09:30:57.039Z,85.7
2023-02-19T09:33:56.985Z,85.8
2023-02-19T09:36:56.987Z,85.2
2023-02-19T09:39:56.992Z,85
2023-02-19T09:42:56.994Z,86.7
2023-02-19T09:45:57.004Z,83.4
2023-02-19T09:48:57.012Z,82.8
2023-02-19T09:51:57.015Z,82.9
2023-02-19T09:54:57.283Z,84.1
2023-02-19T09:57:57.016Z,83.2
2023-02-19T10:00:57.023Z,82.8
2023-02-19T10:03:57.026Z,82
2023-02-19T10:06:57.035Z,82.6
2023-02-19T10:09:57.034Z,81.3
2023-02-19T10:12:57.037Z,79.8
2023-02-19T10:15:57.080Z,76.7
2023-02-19T10:18:57.050Z,79.2
2023-02-19T10:21:57.059Z,80.4
2023-02-19T10:24:57.060Z,80.6
2023-02-19T10:27:57.064Z,78
2023-02-19T10:30:57.087Z,76.2
2023-02-19T10:33:57.076Z,76.7
2023-02-19T10:36:57.080Z,79.1
2023-02-19T10:39:57.091Z,79.6
2023-02-19T10:42:57.096Z,78.2
2023-02-19T10:45:57.093Z,76
2023-02-19T10:48:57.095Z,77.3
2023-02-19T10:51:57.105Z,78
2023-02-19T10:54:57.103Z,76
2023-02-19T10:57:57.104Z,76.7
2023-02-19T11:00:57.122Z,75
2023-02-19T11:03:57.122Z,73.4
2023-02-19T11:06:57.127Z,72.3
2023-02-19T11:09:57.125Z,71.4
2023-02-19T11:12:57.140Z,69.7
2023-02-19T11:15:57.144Z,68.7
2023-02-19T11:18:57.412Z,67.9
2023-02-19T11:21:57.148Z,68.5
2023-02-19T11:24:59.376Z,71
2023-02-19T11:27:57.149Z,72.1
2023-02-19T11:30:57.158Z,69
2023-02-19T11:33:57.157Z,69.8
2023-02-19T11:36:57.158Z,69.9
2023-02-19T11:39:57.167Z,70
2023-02-19T11:42:57.173Z,69.6
2023-02-19T11:45:57.180Z,71.4
2023-02-19T11:48:57.183Z,70.8
2023-02-19T11:51:57.192Z,69.8
2023-02-19T11:54:57.189Z,70.3
2023-02-19T11:57:57.197Z,69.8
2023-02-19T12:00:57.200Z,68.6
2023-02-19T12:03:57.200Z,69.1
2023-02-19T12:06:57.213Z,66.7
2023-02-19T12:09:57.211Z,66.5
2023-02-19T12:12:57.214Z,66.1
2023-02-19T12:15:57.226Z,67.5
2023-02-19T12:18:57.227Z,66.2
2023-02-19T12:21:57.237Z,66.9
2023-02-19T12:24:57.227Z,67.9
2023-02-19T12:27:57.228Z,69.8
2023-02-19T12:30:57.296Z,70.4
2023-02-19T12:33:57.240Z,70.1
2023-02-19T12:36:57.251Z,67.5
2023-02-19T12:39:57.250Z,68.2
2023-02-19T12:42:57.249Z,69
2023-02-19T12:45:57.274Z,68.2
2023-02-19T12:48:57.256Z,69.4
2023-02-19T12:51:57.270Z,68
2023-02-19T12:54:57.267Z,68.1
2023-02-19T12:57:57.276Z,68.3
2023-02-19T13:00:57.324Z,68.7
2023-02-19T13:03:57.299Z,67.4
2023-02-19T13:06:57.305Z,67.3
2023-02-19T13:09:57.298Z,66.9
2023-02-19T13:12:57.302Z,66.7
2023-02-19T13:15:57.316Z,68
2023-02-19T13:18:57.319Z,67.5
2023-02-19T13:21:57.324Z,67.2
2023-02-19T13:24:57.337Z,68
2023-02-19T13:27:57.334Z,67.2
2023-02-19T13:30:57.408Z,66.3
2023-02-19T13:33:57.331Z,67.1
2023-02-19T13:36:57.334Z,67.3
2023-02-19T13:39:57.349Z,66.6
2023-02-19T13:42:57.350Z,67.5
2023-02-19T13:45:57.408Z,67
2023-02-19T13:48:57.516Z,67.3
2023-02-19T13:51:57.357Z,67.1
2023-02-19T13:54:57.368Z,67
2023-02-19T13:57:57.368Z,67
2023-02-19T14:00:57.377Z,67.4
2023-02-19T14:03:57.377Z,66.9
2023-02-19T14:06:57.377Z,66.8
2023-02-19T14:09:57.386Z,66.3
2023-02-19T14:12:57.387Z,66.2
2023-02-19T14:15:57.447Z,66.5
2023-02-19T14:18:57.410Z,66.8
2023-02-19T14:21:57.408Z,66.1
2023-02-19T14:24:57.411Z,65.8
2023-02-19T14:27:57.427Z,65.5
2023-02-19T14:30:57.456Z,66.6
2023-02-19T14:33:57.431Z,66.3
2023-02-19T14:36:58.280Z,66.4
2023-02-19T14:39:57.436Z,67.8
2023-02-19T14:42:57.693Z,67.6
2023-02-19T14:45:57.473Z,68.8
2023-02-19T14:48:57.457Z,69.2
2023-02-19T14:51:57.456Z,69.2
2023-02-19T14:54:57.462Z,69.1
2023-02-19T14:57:57.480Z,68.9
2023-02-19T15:00:57.472Z,68
2023-02-19T15:03:57.483Z,67.7
2023-02-19T15:06:57.480Z,68.2
2023-02-19T15:09:57.495Z,68.8
2023-02-19T15:12:57.488Z,68.8
2023-02-19T15:15:57.518Z,68.7
2023-02-19T15:18:57.498Z,68.7
2023-02-19T15:21:57.498Z,68.8
2023-02-19T15:24:57.502Z,69
2023-02-19T15:27:57.511Z,68.7
2023-02-19T15:30:57.584Z,68.9
2023-02-19T15:33:57.530Z,69.3
2023-02-19T15:36:57.545Z,69.6
2023-02-19T15:39:57.538Z,70
2023-02-19T15:42:57.538Z,69.6
2023-02-19T15:45:57.543Z,70
2023-02-19T15:48:57.552Z,70.3
2023-02-19T15:51:57.546Z,70.6
2023-02-19T15:54:57.756Z,71
2023-02-19T15:57:57.565Z,71.4
2023-02-19T16:00:57.562Z,71.6
2023-02-19T16:03:57.569Z,71.9
2023-02-19T16:06:57.569Z,72.1
2023-02-19T16:09:57.575Z,72.4
2023-02-19T16:12:57.578Z,72.6
2023-02-19T16:15:57.586Z,72.9
2023-02-19T16:18:57.585Z,73.2
2023-02-19T16:21:57.600Z,73.6
2023-02-19T16:24:57.593Z,74
2023-02-19T16:27:57.604Z,74.4
2023-02-19T16:30:57.605Z,74.9
2023-02-19T16:33:57.607Z,75.4
2023-02-19T16:36:57.605Z,75.6
2023-02-19T16:39:57.616Z,75.9
2023-02-19T16:42:57.629Z,76.3
2023-02-19T16:45:57.672Z,76.6
2023-02-19T16:48:57.645Z,76.8
2023-02-19T16:51:57.652Z,77.2
2023-02-19T16:54:57.644Z,77.4
2023-02-19T16:57:57.644Z,77.6
2023-02-19T17:00:57.682Z,77.9
2023-02-19T17:03:57.702Z,78.1
2023-02-19T17:06:57.666Z,78.2
2023-02-19T17:09:57.733Z,78.2
2023-02-19T17:12:57.668Z,78.3
2023-02-19T17:15:57.681Z,78.5
2023-02-19T17:18:57.684Z,78.6
2023-02-19T17:21:57.689Z,78.8
2023-02-19T17:24:57.691Z,78.9
2023-02-19T17:27:57.699Z,78.9
2023-02-19T17:30:57.701Z,79
2023-02-19T17:33:57.700Z,79.3
2023-02-19T17:36:57.709Z,79.6
2023-02-19T17:39:57.715Z,79.9
2023-02-19T17:42:57.712Z,80.1
2023-02-19T17:45:57.768Z,80.5
2023-02-19T17:48:57.733Z,80.8
2023-02-19T17:51:57.823Z,81
2023-02-19T17:54:57.734Z,81
2023-02-19T17:57:57.745Z,81.1
2023-02-19T18:00:57.769Z,81.2
2023-02-19T18:03:57.791Z,81.3
2023-02-19T18:06:57.765Z,81.4
2023-02-19T18:09:57.761Z,81.6
2023-02-19T18:12:57.762Z,81.5
2023-02-19T18:15:57.793Z,81.6
2023-02-19T18:18:57.772Z,81.7
2023-02-19T18:21:57.778Z,81.9
2023-02-19T18:24:57.782Z,82
2023-02-19T18:27:57.784Z,82.2
2023-02-19T18:30:57.895Z,82.6
2023-02-19T18:33:57.788Z,82.7
2023-02-19T18:36:57.795Z,82.6
2023-02-19T18:39:57.795Z,82.5
2023-02-19T18:42:57.807Z,82.4
2023-02-19T18:45:57.841Z,82.1
2023-02-19T18:48:57.818Z,82
2023-02-19T18:51:57.823Z,81.9
2023-02-19T18:54:57.854Z,81.8
2023-02-19T18:57:57.832Z,81.7
2023-02-19T19:00:57.836Z,81.6
2023-02-19T19:03:57.894Z,81.4
2023-02-19T19:06:57.849Z,81.3
2023-02-19T19:09:58.022Z,81.3
2023-02-19T19:12:57.856Z,81.4
2023-02-19T19:15:57.899Z,81.3
2023-02-19T19:18:57.873Z,81.2
2023-02-19T19:21:57.873Z,81.2
2023-02-19T19:24:57.876Z,81.4
2023-02-19T19:27:57.894Z,81.6
2023-02-19T19:30:57.902Z,81.9
2023-02-19T19:33:57.895Z,82
2023-02-19T19:36:57.903Z,82.1
2023-02-19T19:39:57.903Z,82.2
2023-02-19T19:42:57.938Z,82.4
2023-02-19T19:45:57.939Z,82.4
2023-02-19T19:48:57.915Z,82.5
2023-02-19T19:51:58.633Z,82.6
2023-02-19T19:54:57.937Z,82.7
2023-02-19T19:57:57.936Z,82.7
2023-02-19T20:00:57.926Z,82.7
2023-02-19T20:03:57.931Z,82.7
2023-02-19T20:06:57.942Z,82.6
2023-02-19T20:09:57.941Z,82.7
2023-02-19T20:12:57.963Z,82.7
2023-02-19T20:15:58.028Z,82.7
2023-02-19T20:18:57.958Z,82.7
2023-02-19T20:21:57.956Z,82.7
2023-02-19T20:24:57.960Z,82.7
2023-02-19T20:27:57.977Z,82.6
2023-02-19T20:30:58.029Z,82.6
2023-02-19T20:33:57.968Z,82.6
2023-02-19T20:36:57.992Z,82.5
2023-02-19T20:39:57.977Z,82.7
2023-02-19T20:42:58.000Z,82.7
2023-02-19T20:45:57.987Z,82.8
2023-02-19T20:48:57.988Z,82.8
2023-02-19T20:51:58.156Z,82.9
2023-02-19T20:54:57.996Z,83
2023-02-19T20:57:58.013Z,83
2023-02-19T21:00:58.002Z,83
2023-02-19T21:03:58.013Z,83.1
2023-02-19T21:06:58.015Z,83.2
2023-02-19T21:09:58.013Z,83.3
2023-02-19T21:12:58.025Z,83.3
2023-02-19T21:15:58.021Z,83.3
2023-02-19T21:18:58.021Z,83.4
2023-02-19T21:21:58.034Z,83.6
2023-02-19T21:24:58.036Z,83.8
2023-02-19T21:27:58.034Z,84
2023-02-19T21:30:58.028Z,84.2
2023-02-19T21:33:58.034Z,84.3
2023-02-19T21:36:58.034Z,84.4
2023-02-19T21:39:58.038Z,84.3
2023-02-19T21:42:58.043Z,84.4
2023-02-19T21:45:58.069Z,84.3
2023-02-19T21:48:58.040Z,84.4
2023-02-19T21:51:58.037Z,84.3
2023-02-19T21:54:58.046Z,84.4
2023-02-19T21:57:58.041Z,84.6
2023-02-19T22:00:58.221Z,84.5
2023-02-19T22:03:58.046Z,84.6
2023-02-19T22:06:58.043Z,84.6
2023-02-19T22:09:58.065Z,84.4
2023-02-19T22:12:58.087Z,83.9
2023-02-19T22:15:58.109Z,83.7
2023-02-19T22:18:58.112Z,83.5
2023-02-19T22:21:58.132Z,83.4
2023-02-19T22:24:58.144Z,83.2
2023-02-19T22:27:59.898Z,83.1
2023-02-19T22:30:58.175Z,82.9
2023-02-19T22:33:58.181Z,82.9
2023-02-19T22:36:58.347Z,82.9
2023-02-19T22:39:58.190Z,82.8
2023-02-19T22:42:58.209Z,82.9
2023-02-19T22:45:58.241Z,83
2023-02-19T22:48:58.235Z,83
2023-02-19T22:51:58.204Z,83.1
2023-02-19T22:54:58.208Z,83.2
2023-02-19T22:57:58.214Z,83.4
2023-02-19T23:00:58.235Z,83.4
2023-02-19T23:03:58.292Z,83.6
2023-02-19T23:06:58.222Z,83.7
2023-02-19T23:09:58.231Z,83.8
2023-02-19T23:12:58.230Z,83.9
2023-02-19T23:15:58.231Z,84.1
2023-02-19T23:18:58.231Z,84.2
2023-02-19T23:21:58.249Z,84.2
2023-02-19T23:24:58.241Z,84.4
2023-02-19T23:27:58.252Z,84.6
2023-02-19T23:30:58.329Z,84.5
2023-02-19T23:33:58.264Z,84.5
2023-02-19T23:36:58.259Z,84.7
2023-02-19T23:39:58.261Z,84.8
2023-02-19T23:42:58.257Z,84.9
2023-02-19T23:45:58.280Z,85.1
2023-02-19T23:48:58.266Z,85.3
2023-02-19T23:51:58.269Z,85.4
2023-02-19T23:54:58.271Z,85.5
2023-02-19T23:57:58.276Z,85.6
